sensor_id;sensor_type;location;lat;lon;timestamp;P1;durP1;ratioP1;P2;durP2;ratioP2
18685;SDS011;9473;52.342;13.110;2023-03-14T00:01:45;1.17;;;0.77;;
18685;SDS011;9473;52.342;13.110;2023-03-14T00:04:13;1.58;;;0.70;;
18685;SDS011;9473;52.342;13.110;2023-03-14T00:06:40;1.60;;;0.85;;
18685;SDS011;9473;52.342;13.110;2023-03-14T00:09:07;1.02;;;0.80;;
18685;SDS011;9473;52.342;13.110;2023-03-14T00:11:35;2.33;;;1.10;;
18685;SDS011;9473;52.342;13.110;2023-03-14T00:14:02;1.48;;;0.70;;
18685;SDS011;9473;52.342;13.110;2023-03-14T00:16:29;2.58;;;1.05;;
18685;SDS011;9473;52.342;13.110;2023-03-14T00:18:57;1.98;;;0.80;;
18685;SDS011;9473;52.342;13.110;2023-03-14T00:21:25;1.70;;;0.82;;
18685;SDS011;9473;52.342;13.110;2023-03-14T00:23:51;5.63;;;1.00;;
18685;SDS011;9473;52.342;13.110;2023-03-14T00:26:19;1.27;;;0.82;;
18685;SDS011;9473;52.342;13.110;2023-03-14T00:28:50;2.72;;;1.05;;
18685;SDS011;9473;52.342;13.110;2023-03-14T00:31:18;2.13;;;0.88;;
18685;SDS011;9473;52.342;13.110;2023-03-14T00:33:45;1.23;;;0.88;;
18685;SDS011;9473;52.342;13.110;2023-03-14T00:36:12;1.50;;;0.90;;
18685;SDS011;9473;52.342;13.110;2023-03-14T00:38:40;2.10;;;0.90;;
18685;SDS011;9473;52.342;13.110;2023-03-14T00:41:08;2.05;;;0.98;;
18685;SDS011;9473;52.342;13.110;2023-03-14T00:43:35;3.17;;;1.13;;
18685;SDS011;9473;52.342;13.110;2023-03-14T00:46:04;3.08;;;1.15;;
18685;SDS011;9473;52.342;13.110;2023-03-14T00:48:31;3.22;;;0.95;;
18685;SDS011;9473;52.342;13.110;2023-03-14T00:50:58;2.67;;;0.90;;
18685;SDS011;9473;52.342;13.110;2023-03-14T00:53:25;1.95;;;0.88;;
18685;SDS011;9473;52.342;13.110;2023-03-14T00:55:52;1.75;;;0.90;;
18685;SDS011;9473;52.342;13.110;2023-03-14T00:58:19;4.30;;;0.88;;
18685;SDS011;9473;52.342;13.110;2023-03-14T01:00:46;1.40;;;0.90;;
18685;SDS011;9473;52.342;13.110;2023-03-14T01:03:14;1.33;;;0.77;;
18685;SDS011;9473;52.342;13.110;2023-03-14T01:05:41;1.35;;;0.95;;
18685;SDS011;9473;52.342;13.110;2023-03-14T01:08:08;3.25;;;1.00;;
18685;SDS011;9473;52.342;13.110;2023-03-14T01:10:37;1.15;;;0.80;;
18685;SDS011;9473;52.342;13.110;2023-03-14T01:13:04;1.25;;;0.80;;
18685;SDS011;9473;52.342;13.110;2023-03-14T01:15:31;2.28;;;0.98;;
18685;SDS011;9473;52.342;13.110;2023-03-14T01:17:58;1.40;;;0.80;;
18685;SDS011;9473;52.342;13.110;2023-03-14T01:20:27;3.40;;;0.90;;
18685;SDS011;9473;52.342;13.110;2023-03-14T01:22:53;1.70;;;0.90;;
18685;SDS011;9473;52.342;13.110;2023-03-14T01:25:20;1.40;;;0.77;;
18685;SDS011;9473;52.342;13.110;2023-03-14T01:27:47;0.98;;;0.70;;
18685;SDS011;9473;52.342;13.110;2023-03-14T01:30:14;2.42;;;0.90;;
18685;SDS011;9473;52.342;13.110;2023-03-14T01:32:41;1.50;;;0.90;;
18685;SDS011;9473;52.342;13.110;2023-03-14T01:35:08;1.30;;;0.80;;
18685;SDS011;9473;52.342;13.110;2023-03-14T01:37:36;2.50;;;0.80;;
18685;SDS011;9473;52.342;13.110;2023-03-14T01:40:04;1.58;;;0.88;;
18685;SDS011;9473;52.342;13.110;2023-03-14T01:42:31;1.92;;;0.85;;
18685;SDS011;9473;52.342;13.110;2023-03-14T01:44:59;1.25;;;0.80;;
18685;SDS011;9473;52.342;13.110;2023-03-14T01:47:26;1.05;;;0.75;;
18685;SDS011;9473;52.342;13.110;2023-03-14T01:49:53;3.70;;;0.95;;
18685;SDS011;9473;52.342;13.110;2023-03-14T01:52:24;0.80;;;0.70;;
18685;SDS011;9473;52.342;13.110;2023-03-14T01:54:53;0.80;;;0.60;;
18685;SDS011;9473;52.342;13.110;2023-03-14T01:57:22;1.75;;;0.90;;
18685;SDS011;9473;52.342;13.110;2023-03-14T01:59:51;1.90;;;0.82;;
18685;SDS011;9473;52.342;13.110;2023-03-14T02:02:19;1.45;;;0.82;;
18685;SDS011;9473;52.342;13.110;2023-03-14T02:04:46;1.40;;;0.73;;
18685;SDS011;9473;52.342;13.110;2023-03-14T02:07:14;2.08;;;0.70;;
18685;SDS011;9473;52.342;13.110;2023-03-14T02:09:42;0.95;;;0.70;;
18685;SDS011;9473;52.342;13.110;2023-03-14T02:12:11;1.00;;;0.73;;
18685;SDS011;9473;52.342;13.110;2023-03-14T02:14:38;2.25;;;0.90;;
18685;SDS011;9473;52.342;13.110;2023-03-14T02:17:07;1.70;;;0.90;;
18685;SDS011;9473;52.342;13.110;2023-03-14T02:19:37;2.33;;;0.80;;
18685;SDS011;9473;52.342;13.110;2023-03-14T02:22:08;1.55;;;0.80;;
18685;SDS011;9473;52.342;13.110;2023-03-14T02:27:18;1.30;;;0.60;;
18685;SDS011;9473;52.342;13.110;2023-03-14T02:29:48;1.17;;;0.77;;
18685;SDS011;9473;52.342;13.110;2023-03-14T02:32:16;1.48;;;0.82;;
18685;SDS011;9473;52.342;13.110;2023-03-14T02:34:43;1.20;;;0.82;;
18685;SDS011;9473;52.342;13.110;2023-03-14T02:37:12;2.80;;;0.70;;
18685;SDS011;9473;52.342;13.110;2023-03-14T02:39:41;1.80;;;0.70;;
18685;SDS011;9473;52.342;13.110;2023-03-14T02:42:09;2.17;;;0.77;;
18685;SDS011;9473;52.342;13.110;2023-03-14T02:44:46;0.85;;;0.68;;
18685;SDS011;9473;52.342;13.110;2023-03-14T02:47:13;1.60;;;0.63;;
18685;SDS011;9473;52.342;13.110;2023-03-14T02:49:40;2.53;;;0.80;;
18685;SDS011;9473;52.342;13.110;2023-03-14T02:52:07;1.75;;;0.80;;
18685;SDS011;9473;52.342;13.110;2023-03-14T02:54:34;1.23;;;0.80;;
18685;SDS011;9473;52.342;13.110;2023-03-14T02:57:02;1.05;;;0.70;;
18685;SDS011;9473;52.342;13.110;2023-03-14T02:59:29;0.80;;;0.70;;
18685;SDS011;9473;52.342;13.110;2023-03-14T03:01:59;0.70;;;0.68;;
18685;SDS011;9473;52.342;13.110;2023-03-14T03:04:25;1.17;;;0.70;;
18685;SDS011;9473;52.342;13.110;2023-03-14T03:06:52;1.58;;;0.65;;
18685;SDS011;9473;52.342;13.110;2023-03-14T03:09:19;2.03;;;0.60;;
18685;SDS011;9473;52.342;13.110;2023-03-14T03:11:46;0.77;;;0.60;;
18685;SDS011;9473;52.342;13.110;2023-03-14T03:14:13;1.98;;;0.70;;
18685;SDS011;9473;52.342;13.110;2023-03-14T03:16:40;1.55;;;0.80;;
18685;SDS011;9473;52.342;13.110;2023-03-14T03:19:08;1.30;;;0.70;;
18685;SDS011;9473;52.342;13.110;2023-03-14T03:21:35;1.67;;;0.60;;
18685;SDS011;9473;52.342;13.110;2023-03-14T03:24:02;2.20;;;1.23;;
18685;SDS011;9473;52.342;13.110;2023-03-14T03:26:29;1.27;;;0.70;;
18685;SDS011;9473;52.342;13.110;2023-03-14T03:28:56;0.85;;;0.70;;
18685;SDS011;9473;52.342;13.110;2023-03-14T03:31:23;1.27;;;0.73;;
18685;SDS011;9473;52.342;13.110;2023-03-14T03:33:50;1.05;;;0.70;;
18685;SDS011;9473;52.342;13.110;2023-03-14T03:36:21;1.27;;;0.70;;
18685;SDS011;9473;52.342;13.110;2023-03-14T03:38:48;1.30;;;0.73;;
18685;SDS011;9473;52.342;13.110;2023-03-14T03:41:15;2.15;;;0.80;;
18685;SDS011;9473;52.342;13.110;2023-03-14T03:43:42;2.03;;;0.68;;
18685;SDS011;9473;52.342;13.110;2023-03-14T03:46:09;1.02;;;0.60;;
18685;SDS011;9473;52.342;13.110;2023-03-14T03:48:36;1.55;;;0.70;;
18685;SDS011;9473;52.342;13.110;2023-03-14T03:51:03;1.40;;;0.70;;
18685;SDS011;9473;52.342;13.110;2023-03-14T03:53:31;1.25;;;0.75;;
18685;SDS011;9473;52.342;13.110;2023-03-14T03:55:58;0.75;;;0.60;;
18685;SDS011;9473;52.342;13.110;2023-03-14T03:58:26;0.93;;;0.60;;
18685;SDS011;9473;52.342;13.110;2023-03-14T04:00:52;3.78;;;0.70;;
18685;SDS011;9473;52.342;13.110;2023-03-14T04:03:20;1.65;;;1.00;;
18685;SDS011;9473;52.342;13.110;2023-03-14T04:05:57;5.43;;;0.82;;
18685;SDS011;9473;52.342;13.110;2023-03-14T04:08:24;2.25;;;0.60;;
18685;SDS011;9473;52.342;13.110;2023-03-14T04:10:54;2.55;;;0.80;;
18685;SDS011;9473;52.342;13.110;2023-03-14T04:13:21;1.52;;;0.60;;
18685;SDS011;9473;52.342;13.110;2023-03-14T04:15:48;1.08;;;0.60;;
18685;SDS011;9473;52.342;13.110;2023-03-14T04:18:15;3.17;;;0.70;;
18685;SDS011;9473;52.342;13.110;2023-03-14T04:20:42;0.95;;;0.70;;
18685;SDS011;9473;52.342;13.110;2023-03-14T04:23:09;1.30;;;0.70;;
18685;SDS011;9473;52.342;13.110;2023-03-14T04:25:36;2.58;;;0.85;;
18685;SDS011;9473;52.342;13.110;2023-03-14T04:28:04;1.30;;;0.60;;
18685;SDS011;9473;52.342;13.110;2023-03-14T04:30:33;2.58;;;0.80;;
18685;SDS011;9473;52.342;13.110;2023-03-14T04:33:00;1.10;;;0.60;;
18685;SDS011;9473;52.342;13.110;2023-03-14T04:35:26;2.72;;;0.70;;
18685;SDS011;9473;52.342;13.110;2023-03-14T04:37:53;1.02;;;0.80;;
18685;SDS011;9473;52.342;13.110;2023-03-14T04:40:20;1.33;;;0.82;;
18685;SDS011;9473;52.342;13.110;2023-03-14T04:42:47;1.90;;;0.80;;
18685;SDS011;9473;52.342;13.110;2023-03-14T04:45:15;0.98;;;0.70;;
18685;SDS011;9473;52.342;13.110;2023-03-14T04:47:42;1.20;;;0.57;;
18685;SDS011;9473;52.342;13.110;2023-03-14T04:50:10;1.98;;;0.70;;
18685;SDS011;9473;52.342;13.110;2023-03-14T04:52:37;1.83;;;0.70;;
18685;SDS011;9473;52.342;13.110;2023-03-14T04:55:04;3.88;;;0.70;;
18685;SDS011;9473;52.342;13.110;2023-03-14T04:57:31;2.30;;;1.15;;
18685;SDS011;9473;52.342;13.110;2023-03-14T04:59:58;1.55;;;0.88;;
18685;SDS011;9473;52.342;13.110;2023-03-14T05:02:26;0.95;;;0.80;;
18685;SDS011;9473;52.342;13.110;2023-03-14T05:04:53;1.05;;;0.70;;
18685;SDS011;9473;52.342;13.110;2023-03-14T05:07:20;1.08;;;0.82;;
18685;SDS011;9473;52.342;13.110;2023-03-14T05:09:47;1.70;;;0.80;;
18685;SDS011;9473;52.342;13.110;2023-03-14T05:12:14;1.70;;;0.75;;
18685;SDS011;9473;52.342;13.110;2023-03-14T05:14:40;2.03;;;0.65;;
18685;SDS011;9473;52.342;13.110;2023-03-14T05:17:07;2.05;;;1.00;;
18685;SDS011;9473;52.342;13.110;2023-03-14T05:19:36;2.20;;;0.90;;
18685;SDS011;9473;52.342;13.110;2023-03-14T05:22:03;1.15;;;0.75;;
18685;SDS011;9473;52.342;13.110;2023-03-14T05:24:30;2.53;;;0.75;;
18685;SDS011;9473;52.342;13.110;2023-03-14T05:26:57;1.90;;;0.70;;
18685;SDS011;9473;52.342;13.110;2023-03-14T05:29:24;1.02;;;0.77;;
18685;SDS011;9473;52.342;13.110;2023-03-14T05:31:51;1.73;;;0.88;;
18685;SDS011;9473;52.342;13.110;2023-03-14T05:34:18;1.85;;;0.70;;
18685;SDS011;9473;52.342;13.110;2023-03-14T05:36:46;1.67;;;0.80;;
18685;SDS011;9473;52.342;13.110;2023-03-14T05:39:13;0.85;;;0.70;;
18685;SDS011;9473;52.342;13.110;2023-03-14T05:41:40;1.77;;;0.82;;
18685;SDS011;9473;52.342;13.110;2023-03-14T05:44:07;0.80;;;0.68;;
18685;SDS011;9473;52.342;13.110;2023-03-14T05:46:33;2.95;;;0.93;;
18685;SDS011;9473;52.342;13.110;2023-03-14T05:49:00;2.45;;;0.80;;
18685;SDS011;9473;52.342;13.110;2023-03-14T05:51:27;4.25;;;0.63;;
18685;SDS011;9473;52.342;13.110;2023-03-14T05:53:55;1.65;;;0.82;;
18685;SDS011;9473;52.342;13.110;2023-03-14T05:56:22;3.58;;;0.85;;
18685;SDS011;9473;52.342;13.110;2023-03-14T05:58:49;1.63;;;0.80;;
18685;SDS011;9473;52.342;13.110;2023-03-14T06:01:16;3.17;;;0.90;;
18685;SDS011;9473;52.342;13.110;2023-03-14T06:03:43;0.85;;;0.63;;
18685;SDS011;9473;52.342;13.110;2023-03-14T06:06:10;3.30;;;0.90;;
18685;SDS011;9473;52.342;13.110;2023-03-14T06:08:37;8.82;;;1.40;;
18685;SDS011;9473;52.342;13.110;2023-03-14T06:11:05;1.73;;;0.90;;
18685;SDS011;9473;52.342;13.110;2023-03-14T06:13:32;3.20;;;0.90;;
18685;SDS011;9473;52.342;13.110;2023-03-14T06:15:59;2.53;;;0.90;;
18685;SDS011;9473;52.342;13.110;2023-03-14T06:18:26;4.22;;;1.10;;
18685;SDS011;9473;52.342;13.110;2023-03-14T06:20:53;2.67;;;0.90;;
18685;SDS011;9473;52.342;13.110;2023-03-14T06:23:21;1.90;;;0.80;;
18685;SDS011;9473;52.342;13.110;2023-03-14T06:25:48;3.13;;;0.90;;
18685;SDS011;9473;52.342;13.110;2023-03-14T06:28:16;1.63;;;0.80;;
18685;SDS011;9473;52.342;13.110;2023-03-14T06:30:43;1.67;;;0.73;;
18685;SDS011;9473;52.342;13.110;2023-03-14T06:33:10;1.73;;;0.80;;
18685;SDS011;9473;52.342;13.110;2023-03-14T06:35:37;1.17;;;0.90;;
18685;SDS011;9473;52.342;13.110;2023-03-14T06:38:04;3.10;;;0.93;;
18685;SDS011;9473;52.342;13.110;2023-03-14T06:40:30;3.55;;;0.98;;
18685;SDS011;9473;52.342;13.110;2023-03-14T06:42:57;4.43;;;1.20;;
18685;SDS011;9473;52.342;13.110;2023-03-14T06:45:26;3.75;;;1.10;;
18685;SDS011;9473;52.342;13.110;2023-03-14T06:47:52;2.05;;;0.80;;
18685;SDS011;9473;52.342;13.110;2023-03-14T06:50:19;3.10;;;0.82;;
18685;SDS011;9473;52.342;13.110;2023-03-14T06:52:47;1.80;;;0.85;;
18685;SDS011;9473;52.342;13.110;2023-03-14T06:55:15;2.85;;;1.17;;
18685;SDS011;9473;52.342;13.110;2023-03-14T06:57:42;1.58;;;0.70;;
18685;SDS011;9473;52.342;13.110;2023-03-14T07:00:10;3.38;;;0.80;;
18685;SDS011;9473;52.342;13.110;2023-03-14T07:02:38;1.50;;;0.90;;
18685;SDS011;9473;52.342;13.110;2023-03-14T07:05:05;2.88;;;0.90;;
18685;SDS011;9473;52.342;13.110;2023-03-14T07:07:33;1.58;;;0.85;;
18685;SDS011;9473;52.342;13.110;2023-03-14T07:09:59;3.88;;;0.90;;
18685;SDS011;9473;52.342;13.110;2023-03-14T07:12:26;3.33;;;1.13;;
18685;SDS011;9473;52.342;13.110;2023-03-14T07:14:53;2.15;;;1.00;;
18685;SDS011;9473;52.342;13.110;2023-03-14T07:17:20;1.08;;;0.70;;
18685;SDS011;9473;52.342;13.110;2023-03-14T07:19:48;2.60;;;1.00;;
18685;SDS011;9473;52.342;13.110;2023-03-14T07:22:15;3.17;;;0.90;;
18685;SDS011;9473;52.342;13.110;2023-03-14T07:24:42;2.67;;;0.80;;
18685;SDS011;9473;52.342;13.110;2023-03-14T07:27:09;3.35;;;0.90;;
18685;SDS011;9473;52.342;13.110;2023-03-14T07:29:36;2.63;;;1.00;;
18685;SDS011;9473;52.342;13.110;2023-03-14T07:32:03;4.75;;;0.90;;
18685;SDS011;9473;52.342;13.110;2023-03-14T07:34:30;3.10;;;0.90;;
18685;SDS011;9473;52.342;13.110;2023-03-14T07:36:58;3.05;;;1.00;;
18685;SDS011;9473;52.342;13.110;2023-03-14T07:39:25;2.53;;;1.00;;
18685;SDS011;9473;52.342;13.110;2023-03-14T07:41:52;4.57;;;1.10;;
18685;SDS011;9473;52.342;13.110;2023-03-14T07:44:19;4.75;;;1.30;;
18685;SDS011;9473;52.342;13.110;2023-03-14T07:46:46;2.63;;;1.20;;
18685;SDS011;9473;52.342;13.110;2023-03-14T07:49:12;5.10;;;1.30;;
18685;SDS011;9473;52.342;13.110;2023-03-14T07:51:39;3.25;;;1.05;;
18685;SDS011;9473;52.342;13.110;2023-03-14T07:54:10;2.05;;;0.88;;
18685;SDS011;9473;52.342;13.110;2023-03-14T07:56:37;3.38;;;1.00;;
18685;SDS011;9473;52.342;13.110;2023-03-14T07:59:04;3.58;;;1.20;;
18685;SDS011;9473;52.342;13.110;2023-03-14T08:01:31;4.50;;;1.23;;
18685;SDS011;9473;52.342;13.110;2023-03-14T08:03:58;4.22;;;0.90;;
18685;SDS011;9473;52.342;13.110;2023-03-14T08:06:25;3.45;;;0.93;;
18685;SDS011;9473;52.342;13.110;2023-03-14T08:08:52;3.97;;;0.93;;
18685;SDS011;9473;52.342;13.110;2023-03-14T08:11:20;6.18;;;1.10;;
18685;SDS011;9473;52.342;13.110;2023-03-14T08:13:47;4.95;;;1.20;;
18685;SDS011;9473;52.342;13.110;2023-03-14T08:16:15;3.65;;;0.65;;
18685;SDS011;9473;52.342;13.110;2023-03-14T08:18:42;2.08;;;0.90;;
18685;SDS011;9473;52.342;13.110;2023-03-14T08:21:09;3.28;;;1.10;;
18685;SDS011;9473;52.342;13.110;2023-03-14T08:23:36;3.35;;;0.98;;
18685;SDS011;9473;52.342;13.110;2023-03-14T08:26:03;3.67;;;1.05;;
18685;SDS011;9473;52.342;13.110;2023-03-14T08:28:32;2.75;;;0.70;;
18685;SDS011;9473;52.342;13.110;2023-03-14T08:30:59;4.13;;;0.98;;
18685;SDS011;9473;52.342;13.110;2023-03-14T08:33:26;3.70;;;0.75;;
18685;SDS011;9473;52.342;13.110;2023-03-14T08:35:53;3.83;;;1.00;;
18685;SDS011;9473;52.342;13.110;2023-03-14T08:38:21;4.63;;;1.13;;
18685;SDS011;9473;52.342;13.110;2023-03-14T08:40:47;3.50;;;1.15;;
18685;SDS011;9473;52.342;13.110;2023-03-14T08:43:15;5.63;;;1.17;;
18685;SDS011;9473;52.342;13.110;2023-03-14T08:45:43;3.83;;;0.98;;
18685;SDS011;9473;52.342;13.110;2023-03-14T08:48:10;4.25;;;0.82;;
18685;SDS011;9473;52.342;13.110;2023-03-14T08:50:37;3.33;;;1.00;;
18685;SDS011;9473;52.342;13.110;2023-03-14T08:53:04;2.47;;;1.00;;
18685;SDS011;9473;52.342;13.110;2023-03-14T08:55:31;5.15;;;0.90;;
18685;SDS011;9473;52.342;13.110;2023-03-14T08:57:57;3.78;;;1.02;;
18685;SDS011;9473;52.342;13.110;2023-03-14T09:00:24;3.25;;;0.98;;
18685;SDS011;9473;52.342;13.110;2023-03-14T09:02:53;2.92;;;0.98;;
18685;SDS011;9473;52.342;13.110;2023-03-14T09:05:20;4.05;;;0.90;;
18685;SDS011;9473;52.342;13.110;2023-03-14T09:07:46;3.58;;;1.00;;
18685;SDS011;9473;52.342;13.110;2023-03-14T09:10:13;3.33;;;0.88;;
18685;SDS011;9473;52.342;13.110;2023-03-14T09:12:40;2.60;;;0.80;;
18685;SDS011;9473;52.342;13.110;2023-03-14T09:15:08;3.38;;;1.05;;
18685;SDS011;9473;52.342;13.110;2023-03-14T09:17:35;5.40;;;1.10;;
18685;SDS011;9473;52.342;13.110;2023-03-14T09:20:03;1.67;;;0.95;;
18685;SDS011;9473;52.342;13.110;2023-03-14T09:22:32;3.10;;;0.90;;
18685;SDS011;9473;52.342;13.110;2023-03-14T09:25:00;5.72;;;1.10;;
18685;SDS011;9473;52.342;13.110;2023-03-14T09:27:27;6.13;;;0.90;;
18685;SDS011;9473;52.342;13.110;2023-03-14T09:29:54;5.68;;;0.90;;
18685;SDS011;9473;52.342;13.110;2023-03-14T09:32:21;4.15;;;0.90;;
18685;SDS011;9473;52.342;13.110;2023-03-14T09:34:48;5.18;;;1.17;;
18685;SDS011;9473;52.342;13.110;2023-03-14T09:37:16;3.67;;;1.17;;
18685;SDS011;9473;52.342;13.110;2023-03-14T09:39:44;2.72;;;0.80;;
18685;SDS011;9473;52.342;13.110;2023-03-14T09:42:13;4.57;;;0.70;;
18685;SDS011;9473;52.342;13.110;2023-03-14T09:44:42;3.70;;;1.10;;
18685;SDS011;9473;52.342;13.110;2023-03-14T09:47:11;4.43;;;1.00;;
18685;SDS011;9473;52.342;13.110;2023-03-14T09:49:40;3.55;;;1.00;;
18685;SDS011;9473;52.342;13.110;2023-03-14T09:52:10;3.00;;;0.98;;
18685;SDS011;9473;52.342;13.110;2023-03-14T09:54:40;2.90;;;1.08;;
18685;SDS011;9473;52.342;13.110;2023-03-14T09:57:11;2.83;;;0.80;;
18685;SDS011;9473;52.342;13.110;2023-03-14T09:59:39;1.63;;;0.70;;
18685;SDS011;9473;52.342;13.110;2023-03-14T10:02:14;0.80;;;0.60;;
18685;SDS011;9473;52.342;13.110;2023-03-14T10:04:41;3.92;;;0.70;;
18685;SDS011;9473;52.342;13.110;2023-03-14T10:07:11;4.57;;;0.70;;
18685;SDS011;9473;52.342;13.110;2023-03-14T10:09:42;2.50;;;0.70;;
18685;SDS011;9473;52.342;13.110;2023-03-14T10:12:09;1.67;;;0.80;;
18685;SDS011;9473;52.342;13.110;2023-03-14T10:14:37;2.95;;;0.55;;
18685;SDS011;9473;52.342;13.110;2023-03-14T10:17:05;4.25;;;0.63;;
18685;SDS011;9473;52.342;13.110;2023-03-14T10:19:32;1.65;;;0.60;;
18685;SDS011;9473;52.342;13.110;2023-03-14T10:22:01;1.23;;;0.60;;
18685;SDS011;9473;52.342;13.110;2023-03-14T10:24:29;3.30;;;0.80;;
18685;SDS011;9473;52.342;13.110;2023-03-14T10:26:59;1.42;;;0.70;;
18685;SDS011;9473;52.342;13.110;2023-03-14T10:29:27;2.45;;;0.60;;
18685;SDS011;9473;52.342;13.110;2023-03-14T10:31:56;2.45;;;0.80;;
18685;SDS011;9473;52.342;13.110;2023-03-14T10:34:26;1.52;;;0.70;;
18685;SDS011;9473;52.342;13.110;2023-03-14T10:36:54;2.20;;;0.55;;
18685;SDS011;9473;52.342;13.110;2023-03-14T10:39:23;4.25;;;0.68;;
18685;SDS011;9473;52.342;13.110;2023-03-14T10:41:51;1.92;;;0.80;;
18685;SDS011;9473;52.342;13.110;2023-03-14T10:44:21;1.13;;;0.70;;
18685;SDS011;9473;52.342;13.110;2023-03-14T10:46:55;3.33;;;0.90;;
18685;SDS011;9473;52.342;13.110;2023-03-14T10:49:24;2.53;;;0.80;;
18685;SDS011;9473;52.342;13.110;2023-03-14T10:51:52;2.88;;;0.70;;
18685;SDS011;9473;52.342;13.110;2023-03-14T10:54:20;0.63;;;0.50;;
18685;SDS011;9473;52.342;13.110;2023-03-14T10:56:55;2.97;;;0.70;;
18685;SDS011;9473;52.342;13.110;2023-03-14T10:59:24;1.23;;;0.68;;
18685;SDS011;9473;52.342;13.110;2023-03-14T11:01:53;4.28;;;0.63;;
18685;SDS011;9473;52.342;13.110;2023-03-14T11:04:25;2.25;;;0.80;;
18685;SDS011;9473;52.342;13.110;2023-03-14T11:06:58;1.10;;;0.60;;
18685;SDS011;9473;52.342;13.110;2023-03-14T11:09:28;1.80;;;0.60;;
18685;SDS011;9473;52.342;13.110;2023-03-14T11:11:59;2.50;;;0.80;;
18685;SDS011;9473;52.342;13.110;2023-03-14T11:14:31;2.67;;;0.70;;
18685;SDS011;9473;52.342;13.110;2023-03-14T11:17:00;1.50;;;0.60;;
18685;SDS011;9473;52.342;13.110;2023-03-14T11:19:34;0.68;;;0.57;;
18685;SDS011;9473;52.342;13.110;2023-03-14T11:22:05;1.70;;;0.60;;
18685;SDS011;9473;52.342;13.110;2023-03-14T11:24:40;1.75;;;0.60;;
18685;SDS011;9473;52.342;13.110;2023-03-14T11:27:12;1.42;;;0.70;;
18685;SDS011;9473;52.342;13.110;2023-03-14T11:29:45;1.50;;;0.60;;
18685;SDS011;9473;52.342;13.110;2023-03-14T11:32:14;1.85;;;0.60;;
18685;SDS011;9473;52.342;13.110;2023-03-14T11:34:46;2.10;;;0.68;;
18685;SDS011;9473;52.342;13.110;2023-03-14T11:37:14;1.73;;;0.70;;
18685;SDS011;9473;52.342;13.110;2023-03-14T11:39:44;2.88;;;0.70;;
18685;SDS011;9473;52.342;13.110;2023-03-14T11:42:14;1.58;;;0.90;;
18685;SDS011;9473;52.342;13.110;2023-03-14T11:44:42;1.95;;;0.60;;
18685;SDS011;9473;52.342;13.110;2023-03-14T11:47:12;2.65;;;0.60;;
18685;SDS011;9473;52.342;13.110;2023-03-14T11:49:43;2.92;;;0.75;;
18685;SDS011;9473;52.342;13.110;2023-03-14T11:52:13;0.73;;;0.35;;
18685;SDS011;9473;52.342;13.110;2023-03-14T11:54:43;0.50;;;0.50;;
18685;SDS011;9473;52.342;13.110;2023-03-14T11:57:15;0.50;;;0.50;;
18685;SDS011;9473;52.342;13.110;2023-03-14T11:59:45;2.65;;;0.60;;
18685;SDS011;9473;52.342;13.110;2023-03-14T12:02:16;1.20;;;0.70;;
18685;SDS011;9473;52.342;13.110;2023-03-14T12:04:50;0.95;;;0.50;;
18685;SDS011;9473;52.342;13.110;2023-03-14T12:07:19;0.45;;;0.40;;
18685;SDS011;9473;52.342;13.110;2023-03-14T12:09:46;2.58;;;0.60;;
18685;SDS011;9473;52.342;13.110;2023-03-14T12:12:14;2.10;;;0.40;;
18685;SDS011;9473;52.342;13.110;2023-03-14T12:14:44;2.25;;;0.30;;
18685;SDS011;9473;52.342;13.110;2023-03-14T12:17:19;1.70;;;0.65;;
18685;SDS011;9473;52.342;13.110;2023-03-14T12:19:46;1.75;;;0.50;;
18685;SDS011;9473;52.342;13.110;2023-03-14T12:22:21;0.93;;;0.50;;
18685;SDS011;9473;52.342;13.110;2023-03-14T12:24:50;0.88;;;0.40;;
18685;SDS011;9473;52.342;13.110;2023-03-14T12:30:04;2.30;;;0.52;;
18685;SDS011;9473;52.342;13.110;2023-03-14T12:32:38;0.90;;;0.50;;
18685;SDS011;9473;52.342;13.110;2023-03-14T12:35:07;0.77;;;0.50;;
18685;SDS011;9473;52.342;13.110;2023-03-14T12:37:54;0.90;;;0.50;;
18685;SDS011;9473;52.342;13.110;2023-03-14T12:40:25;1.42;;;0.60;;
18685;SDS011;9473;52.342;13.110;2023-03-14T12:42:56;1.02;;;0.50;;
18685;SDS011;9473;52.342;13.110;2023-03-14T12:45:25;1.48;;;0.50;;
18685;SDS011;9473;52.342;13.110;2023-03-14T12:47:55;3.42;;;0.60;;
18685;SDS011;9473;52.342;13.110;2023-03-14T12:55:53;1.13;;;0.65;;
18685;SDS011;9473;52.342;13.110;2023-03-14T12:58:25;1.27;;;0.50;;
18685;SDS011;9473;52.342;13.110;2023-03-14T13:00:55;1.92;;;0.70;;
18685;SDS011;9473;52.342;13.110;2023-03-14T13:03:25;1.73;;;0.47;;
18685;SDS011;9473;52.342;13.110;2023-03-14T13:05:55;0.70;;;0.30;;
18685;SDS011;9473;52.342;13.110;2023-03-14T13:08:33;0.65;;;0.40;;
18685;SDS011;9473;52.342;13.110;2023-03-14T13:11:00;1.00;;;0.40;;
18685;SDS011;9473;52.342;13.110;2023-03-14T13:13:28;0.60;;;0.47;;
18685;SDS011;9473;52.342;13.110;2023-03-14T13:15:55;1.75;;;0.40;;
18685;SDS011;9473;52.342;13.110;2023-03-14T13:18:28;0.55;;;0.40;;
18685;SDS011;9473;52.342;13.110;2023-03-14T13:20:58;0.50;;;0.35;;
18685;SDS011;9473;52.342;13.110;2023-03-14T13:23:26;1.17;;;0.40;;
18685;SDS011;9473;52.342;13.110;2023-03-14T13:25:53;0.88;;;0.40;;
18685;SDS011;9473;52.342;13.110;2023-03-14T13:28:21;0.40;;;0.30;;
18685;SDS011;9473;52.342;13.110;2023-03-14T13:30:49;0.95;;;0.20;;
18685;SDS011;9473;52.342;13.110;2023-03-14T13:33:17;0.88;;;0.40;;
18685;SDS011;9473;52.342;13.110;2023-03-14T13:35:46;0.70;;;0.40;;
18685;SDS011;9473;52.342;13.110;2023-03-14T13:38:17;1.02;;;0.40;;
18685;SDS011;9473;52.342;13.110;2023-03-14T13:40:45;1.10;;;0.40;;
18685;SDS011;9473;52.342;13.110;2023-03-14T13:43:16;0.65;;;0.40;;
18685;SDS011;9473;52.342;13.110;2023-03-14T13:45:44;1.67;;;0.43;;
18685;SDS011;9473;52.342;13.110;2023-03-14T13:48:12;0.63;;;0.40;;
18685;SDS011;9473;52.342;13.110;2023-03-14T13:50:45;1.00;;;0.43;;
18685;SDS011;9473;52.342;13.110;2023-03-14T13:53:12;0.60;;;0.40;;
18685;SDS011;9473;52.342;13.110;2023-03-14T13:55:39;1.25;;;0.43;;
18685;SDS011;9473;52.342;13.110;2023-03-14T13:58:10;0.52;;;0.38;;
18685;SDS011;9473;52.342;13.110;2023-03-14T14:00:39;0.47;;;0.30;;
18685;SDS011;9473;52.342;13.110;2023-03-14T14:03:08;0.43;;;0.40;;
18685;SDS011;9473;52.342;13.110;2023-03-14T14:05:37;0.50;;;0.40;;
18685;SDS011;9473;52.342;13.110;2023-03-14T14:08:10;0.60;;;0.45;;
18685;SDS011;9473;52.342;13.110;2023-03-14T14:10:37;1.25;;;0.50;;
18685;SDS011;9473;52.342;13.110;2023-03-14T14:13:05;1.90;;;0.50;;
18685;SDS011;9473;52.342;13.110;2023-03-14T14:15:33;0.77;;;0.38;;
18685;SDS011;9473;52.342;13.110;2023-03-14T14:18:03;0.60;;;0.40;;
18685;SDS011;9473;52.342;13.110;2023-03-14T14:20:32;0.68;;;0.50;;
18685;SDS011;9473;52.342;13.110;2023-03-14T14:23:00;0.65;;;0.40;;
18685;SDS011;9473;52.342;13.110;2023-03-14T14:25:29;0.40;;;0.40;;
18685;SDS011;9473;52.342;13.110;2023-03-14T14:27:56;0.88;;;0.50;;
18685;SDS011;9473;52.342;13.110;2023-03-14T14:30:30;0.52;;;0.40;;
18685;SDS011;9473;52.342;13.110;2023-03-14T14:33:12;2.05;;;0.40;;
18685;SDS011;9473;52.342;13.110;2023-03-14T14:35:39;0.75;;;0.40;;
18685;SDS011;9473;52.342;13.110;2023-03-14T14:38:10;0.38;;;0.38;;
18685;SDS011;9473;52.342;13.110;2023-03-14T14:40:44;1.13;;;0.50;;
18685;SDS011;9473;52.342;13.110;2023-03-14T14:43:11;1.20;;;0.50;;
18685;SDS011;9473;52.342;13.110;2023-03-14T14:45:42;0.80;;;0.47;;
18685;SDS011;9473;52.342;13.110;2023-03-14T14:48:10;0.40;;;0.40;;
18685;SDS011;9473;52.342;13.110;2023-03-14T14:50:38;0.60;;;0.40;;
18685;SDS011;9473;52.342;13.110;2023-03-14T14:53:18;0.70;;;0.30;;
18685;SDS011;9473;52.342;13.110;2023-03-14T14:55:49;1.17;;;0.40;;
18685;SDS011;9473;52.342;13.110;2023-03-14T14:58:18;0.50;;;0.50;;
18685;SDS011;9473;52.342;13.110;2023-03-14T15:00:50;1.40;;;0.40;;
18685;SDS011;9473;52.342;13.110;2023-03-14T15:03:17;0.68;;;0.38;;
18685;SDS011;9473;52.342;13.110;2023-03-14T15:05:44;0.65;;;0.50;;